Time;durP1;ratioP1;P1;durP2;ratioP2;P2;SDS_P1;SDS_P2;PMS_P1;PMS_P2;Temp;Humidity;BMP_temperature;BMP_pressure;BME280_temperature;BME280_humidity;BME280_pressure;Samples;Min_cycle;Max_cycle;Signal;HPM_P1;HPM_P2
2021/09/30 00:00:09;;;;;;;3.70;2.58;;;;;;;9.03;100.00;101255.47;5013051;28;20046;-82
2021/09/30 00:02:36;;;;;;;3.08;2.40;;;;;;;9.18;100.00;101253.66;4982308;28;20073;-82
2021/09/30 00:05:04;;;;;;;2.78;2.33;;;;;;;9.10;100.00;101253.69;5015196;28;20095;-80
2021/09/30 00:07:30;;;;;;;4.40;2.58;;;;;;;8.98;100.00;101257.25;5016197;28;20046;-81
2021/09/30 00:09:57;;;;;;;2.55;2.25;;;;;;;8.98;100.00;101256.38;5036021;28;20029;-83
2021/09/30 00:12:28;;;;;;;3.28;2.28;;;;;;;8.94;100.00;101252.88;5022615;28;20042;-83
2021/09/30 00:15:03;;;;;;;3.53;2.58;;;;;;;8.93;100.00;101259.03;5005893;28;20083;-81
2021/09/30 00:17:47;;;;;;;3.22;2.33;;;;;;;8.97;100.00;101259.88;5016582;28;20052;-82
2021/09/30 00:34:44;;;;;;;4.20;2.95;;;;;;;8.71;100.00;101267.88;5048905;28;20053;-82
2021/09/30 00:48:03;;;;;;;2.30;2.10;;;;;;;8.70;100.00;101268.78;5046806;28;20040;-81
2021/09/30 00:51:03;;;;;;;2.45;2.15;;;;;;;8.64;100.00;101264.41;5044129;28;20052;-82
2021/09/30 01:33:09;;;;;;;2.50;2.20;;;;;;;8.51;100.00;101288.16;5029317;28;20050;-82
2021/09/30 01:52:12;;;;;;;5.53;2.33;;;;;;;8.51;100.00;101293.41;5033637;28;20045;-82
2021/09/30 02:25:19;;;;;;;3.67;1.80;;;;;;;8.27;100.00;101300.44;5031163;28;20041;-82
2021/09/30 02:58:27;;;;;;;3.75;2.30;;;;;;;8.25;100.00;101303.94;5029972;28;20075;-81
2021/09/30 03:00:57;;;;;;;2.08;1.88;;;;;;;8.33;100.00;101307.47;5031669;28;20141;-80
2021/09/30 03:03:27;;;;;;;2.63;2.00;;;;;;;8.39;100.00;101312.72;5027088;28;20048;-80
2021/09/30 03:05:56;;;;;;;2.38;1.98;;;;;;;8.31;100.00;101306.56;5028464;28;20041;-81
2021/09/30 03:08:27;;;;;;;3.90;2.20;;;;;;;8.36;100.00;101313.63;5027847;28;20524;-81
2021/09/30 03:10:55;;;;;;;5.22;2.22;;;;;;;8.45;100.00;101313.59;5052089;28;20037;-81
2021/09/30 03:13:23;;;;;;;3.20;1.85;;;;;;;8.43;100.00;101314.50;5023665;28;20070;-80
2021/09/30 03:15:56;;;;;;;2.70;2.35;;;;;;;8.44;100.00;101319.75;5019305;28;20077;-80
2021/09/30 03:23:56;;;;;;;3.40;2.42;;;;;;;8.43;100.00;101325.91;5051916;28;20124;-80
2021/09/30 03:26:25;;;;;;;3.45;2.45;;;;;;;8.45;100.00;101329.41;5031848;28;20041;-80
2021/09/30 03:28:53;;;;;;;3.30;1.77;;;;;;;8.52;100.00;101338.19;5019086;28;20129;-80
2021/09/30 03:31:21;;;;;;;3.17;2.15;;;;;;;8.54;100.00;101333.78;5109980;28;20045;-80
2021/09/30 03:33:48;;;;;;;2.60;2.28;;;;;;;8.58;100.00;101339.94;5023896;28;20047;-80
2021/09/30 03:36:17;;;;;;;4.13;2.10;;;;;;;8.62;100.00;101342.53;5026822;28;20049;-81
2021/09/30 03:38:44;;;;;;;4.10;2.20;;;;;;;8.65;100.00;101341.66;5054336;28;20044;-80
2021/09/30 03:41:10;;;;;;;6.15;2.20;;;;;;;8.70;100.00;101330.25;5036487;28;20040;-80
2021/09/30 03:43:37;;;;;;;2.88;2.13;;;;;;;8.70;100.00;101351.31;5040952;28;20059;-81
2021/09/30 03:46:04;;;;;;;4.50;2.40;;;;;;;8.67;100.00;101330.25;5029272;28;20041;-80
2021/09/30 03:48:34;;;;;;;2.55;2.05;;;;;;;8.71;100.00;101347.78;5030223;28;20049;-80
2021/09/30 03:51:19;;;;;;;2.63;2.03;;;;;;;8.75;100.00;101340.78;5116209;27;20051;-80
2021/09/30 03:56:47;;;;;;;3.72;2.25;;;;;;;8.78;100.00;101348.66;5044171;28;20041;-79
2021/09/30 03:59:20;;;;;;;8.23;4.13;;;;;;;8.86;100.00;101360.06;5025047;28;20672;-80
2021/09/30 04:02:01;;;;;;;4.80;3.05;;;;;;;8.87;100.00;101351.28;5043906;28;20109;-81
2021/09/30 04:04:35;;;;;;;5.70;3.17;;;;;;;8.82;100.00;101357.44;5041996;28;20057;-80
2021/09/30 04:07:09;;;;;;;4.75;2.10;;;;;;;8.84;100.00;101359.19;5022331;28;20100;-80
2021/09/30 04:09:38;;;;;;;3.03;2.28;;;;;;;8.80;100.00;101351.28;5028792;28;20550;-80
2021/09/30 04:12:08;;;;;;;3.30;2.40;;;;;;;8.83;100.00;101365.34;5044142;28;20144;-80
2021/09/30 04:14:36;;;;;;;3.65;2.38;;;;;;;8.80;100.00;101357.44;5043063;28;20090;-80
2021/09/30 04:17:03;;;;;;;3.20;2.00;;;;;;;8.71;100.00;101363.59;5053833;28;20730;-80
2021/09/30 04:19:30;;;;;;;4.90;2.53;;;;;;;8.71;100.00;101363.59;5050915;28;20041;-80
2021/09/30 04:21:57;;;;;;;4.60;2.30;;;;;;;8.77;100.00;101365.38;5060659;28;20115;-80
2021/09/30 04:24:24;;;;;;;8.02;3.80;;;;;;;8.79;100.00;101368.00;5045095;28;20124;-80
2021/09/30 04:26:52;;;;;;;4.00;2.17;;;;;;;8.78;100.00;101376.78;5051670;28;20069;-80
2021/09/30 04:29:19;;;;;;;2.60;2.30;;;;;;;8.80;100.00;101383.78;5036852;28;20041;-80
2021/09/30 04:31:47;;;;;;;4.38;2.70;;;;;;;8.72;100.00;101381.16;5041883;28;20128;-80
2021/09/30 04:34:17;;;;;;;4.35;2.72;;;;;;;8.73;100.00;101382.03;5024338;28;20041;-80
2021/09/30 04:36:48;;;;;;;2.53;2.00;;;;;;;8.74;100.00;101378.50;5024432;28;20050;-80
2021/09/30 04:39:18;;;;;;;4.20;2.63;;;;;;;8.71;100.00;101389.06;5021722;28;20045;-80
2021/09/30 04:41:46;;;;;;;3.88;2.22;;;;;;;8.81;100.00;101392.56;5041064;28;20187;-80
2021/09/30 04:44:14;;;;;;;3.70;2.45;;;;;;;8.79;100.00;101389.94;5059724;28;20052;-80
2021/09/30 04:46:41;;;;;;;3.35;2.08;;;;;;;8.73;100.00;101396.09;5051907;28;20057;-80
2021/09/30 04:49:08;;;;;;;4.28;2.00;;;;;;;8.72;100.00;101411.91;5015119;28;20042;-80
2021/09/30 04:51:35;;;;;;;6.15;2.22;;;;;;;8.72;100.00;101402.22;5039405;28;20053;-80
2021/09/30 04:54:03;;;;;;;4.80;2.05;;;;;;;8.70;100.00;101403.13;5024634;28;20052;-80
2021/09/30 04:56:30;;;;;;;4.40;2.28;;;;;;;8.77;100.00;101410.16;5027144;28;20041;-80
2021/09/30 04:58:58;;;;;;;3.78;2.08;;;;;;;8.69;100.00;101407.53;5025536;28;20112;-80
2021/09/30 05:01:25;;;;;;;3.55;2.20;;;;;;;8.76;100.00;101413.66;5018482;28;20037;-79
2021/09/30 05:03:52;;;;;;;3.20;2.25;;;;;;;8.70;100.00;101419.81;5039819;28;20496;-80
2021/09/30 05:06:19;;;;;;;4.80;2.30;;;;;;;8.76;100.00;101420.69;5055962;28;20048;-80
2021/09/30 05:08:48;;;;;;;4.15;2.70;;;;;;;8.80;100.00;101418.03;5055810;28;20049;-80
2021/09/30 05:11:16;;;;;;;4.43;2.30;;;;;;;8.94;100.00;101424.19;5030206;28;20043;-80
2021/09/30 05:13:43;;;;;;;5.80;2.63;;;;;;;8.91;100.00;101424.19;5046319;28;20053;-80
2021/09/30 05:16:12;;;;;;;7.75;4.07;;;;;;;8.94;100.00;101426.81;5046451;28;20044;-80
2021/09/30 05:18:44;;;;;;;6.85;2.88;;;;;;;8.98;100.00;101427.66;5044738;28;20072;-80
2021/09/30 05:21:11;;;;;;;2.63;2.40;;;;;;;9.11;100.00;101426.78;5084410;27;20045;-80
2021/09/30 05:23:37;;;;;;;3.78;2.30;;;;;;;9.11;100.00;101421.50;5051243;28;20041;-80
2021/09/30 05:26:04;;;;;;;4.90;2.53;;;;;;;9.13;100.00;101432.91;5026170;28;20121;-80
2021/09/30 05:28:31;;;;;;;4.25;2.63;;;;;;;9.15;100.00;101433.78;5047356;27;20057;-80
2021/09/30 05:31:00;;;;;;;4.97;2.45;;;;;;;9.11;100.00;101437.31;5044635;28;20049;-80
2021/09/30 05:33:28;;;;;;;4.97;3.17;;;;;;;9.12;100.00;101443.47;5032994;28;20394;-80
2021/09/30 05:35:55;;;;;;;4.07;2.53;;;;;;;9.01;100.00;101448.78;5043195;28;20455;-81
2021/09/30 05:38:22;;;;;;;3.53;2.63;;;;;;;9.06;100.00;101444.34;5042142;28;20049;-80
2021/09/30 05:40:49;;;;;;;4.82;2.58;;;;;;;9.08;100.00;101447.88;5038548;28;20521;-80
2021/09/30 05:43:27;;;;;;;2.85;2.30;;;;;;;9.07;100.00;101456.66;5038657;28;20062;-80
2021/09/30 05:45:56;;;;;;;5.00;2.22;;;;;;;9.06;100.00;101451.38;5046949;27;20320;-80
2021/09/30 05:48:24;;;;;;;4.57;2.20;;;;;;;9.01;100.00;101460.19;5039164;28;20049;-80
2021/09/30 05:50:55;;;;;;;4.10;2.53;;;;;;;8.99;100.00;101461.94;5024801;28;20044;-81
2021/09/30 05:53:23;;;;;;;4.03;2.63;;;;;;;8.99;100.00;101466.31;5026398;28;20108;-80
2021/09/30 05:56:00;;;;;;;4.43;2.33;;;;;;;9.04;100.00;101459.31;5026647;28;20052;-80
2021/09/30 05:58:29;;;;;;;4.40;2.35;;;;;;;9.05;100.00;101470.72;5059889;28;20049;-81
2021/09/30 06:14:03;;;;;;;4.57;2.55;;;;;;;9.06;100.00;101480.38;5032573;28;20059;-81
2021/09/30 06:16:33;;;;;;;4.32;2.55;;;;;;;8.98;100.00;101472.47;5085139;28;20150;-81
2021/09/30 06:19:20;;;;;;;5.90;2.65;;;;;;;9.04;100.00;101467.22;5094587;22;20136;31
2021/09/30 06:21:48;;;;;;;5.50;2.22;;;;;;;9.05;100.00;101470.72;4969938;28;20503;-82
2021/09/30 06:24:17;;;;;;;5.70;2.65;;;;;;;8.93;100.00;101472.50;4963782;28;20053;-80
2021/09/30 06:26:44;;;;;;;4.05;2.20;;;;;;;9.03;100.00;101463.69;4975490;28;20569;-81
2021/09/30 06:29:11;;;;;;;6.45;2.33;;;;;;;9.06;100.00;101488.28;4974439;28;20042;-79
2021/09/30 06:31:38;;;;;;;4.78;2.10;;;;;;;9.05;100.00;101473.34;4975544;28;20050;-82
2021/09/30 06:34:05;;;;;;;3.90;2.30;;;;;;;9.09;100.00;101467.22;4974270;28;20503;-83
2021/09/30 06:36:32;;;;;;;3.83;2.20;;;;;;;9.03;100.00;101473.38;4976179;28;20058;-82
2021/09/30 06:38:58;;;;;;;4.55;2.47;;;;;;;9.03;100.00;101473.38;4973621;28;20125;-81
2021/09/30 06:41:25;;;;;;;4.82;2.50;;;;;;;9.04;100.00;101477.75;4956338;28;20030;-81
2021/09/30 06:44:12;;;;;;;6.07;3.30;;;;;;;9.01;100.00;101485.66;4977527;28;20105;-81
2021/09/30 06:46:38;;;;;;;3.25;2.20;;;;;;;9.02;100.00;101482.16;4950935;28;20042;-79
2021/09/30 06:49:05;;;;;;;4.00;2.30;;;;;;;9.02;100.00;101498.84;4958179;28;20144;-81
2021/09/30 06:51:33;;;;;;;3.50;2.30;;;;;;;9.01;100.00;101491.81;4967448;28;20050;-82
2021/09/30 06:54:00;;;;;;;3.83;2.08;;;;;;;9.03;100.00;101487.41;4973635;28;20407;-81
2021/09/30 06:56:28;;;;;;;4.25;2.00;;;;;;;9.09;100.00;101494.44;4974826;28;20050;-83
2021/09/30 06:59:05;;;;;;;4.38;2.35;;;;;;;9.14;100.00;101502.34;4973550;28;20050;-82
2021/09/30 07:01:33;;;;;;;4.57;2.35;;;;;;;9.16;100.00;101509.34;4974340;28;20050;-82
2021/09/30 07:04:05;;;;;;;6.28;2.63;;;;;;;9.17;100.00;101510.25;4989141;28;20050;-83
2021/09/30 07:06:32;;;;;;;5.88;2.35;;;;;;;9.23;100.00;101507.59;4975066;28;20504;-83
2021/09/30 07:08:59;;;;;;;3.97;2.13;;;;;;;9.24;100.00;101520.78;4956535;28;20058;-82
2021/09/30 07:11:25;;;;;;;2.45;2.20;;;;;;;9.26;100.00;101520.78;4974372;28;20042;-81
2021/09/30 07:13:52;;;;;;;3.85;2.40;;;;;;;9.27;100.00;101517.28;4972882;28;20109;-82
2021/09/30 07:16:18;;;;;;;3.35;2.25;;;;;;;9.26;100.00;101520.78;4974374;28;20795;-82
2021/09/30 07:18:45;;;;;;;4.30;2.40;;;;;;;9.30;100.00;101530.44;4983922;28;20096;-81
2021/09/30 07:21:12;;;;;;;4.80;2.80;;;;;;;9.39;100.00;101521.63;4972878;28;20054;-81
2021/09/30 07:23:40;;;;;;;4.80;2.78;;;;;;;9.44;100.00;101526.03;4972924;28;20054;-81
2021/09/30 07:26:07;;;;;;;7.20;2.72;;;;;;;9.43;100.00;101537.47;4974714;28;20042;-81
2021/09/30 07:28:34;;;;;;;3.38;1.90;;;;;;;9.47;100.00;101530.41;4972258;28;20507;-82
2021/09/30 07:31:02;;;;;;;4.45;2.28;;;;;;;9.49;100.00;101526.88;4974248;28;20042;-82
2021/09/30 07:33:29;;;;;;;5.72;2.30;;;;;;;9.52;100.00;101531.28;4973272;28;20695;-80
2021/09/30 07:35:56;;;;;;;3.78;2.60;;;;;;;9.50;100.00;101528.66;4971497;28;20459;-82
2021/09/30 07:38:23;;;;;;;3.35;2.05;;;;;;;9.61;100.00;101526.00;4953738;28;20047;-81
2021/09/30 07:40:50;;;;;;;4.15;2.00;;;;;;;9.62;100.00;101526.88;4972203;28;20553;-86
2021/09/30 07:43:17;;;;;;;2.90;1.92;;;;;;;9.66;100.00;101525.97;4973198;28;20042;-81
2021/09/30 07:45:43;;;;;;;3.90;2.35;;;;;;;9.59;100.00;101533.03;4973910;28;20046;-81
2021/09/30 07:48:10;;;;;;;5.28;2.67;;;;;;;9.60;100.00;101524.25;4956921;28;20076;-84
2021/09/30 07:50:39;;;;;;;3.13;2.63;;;;;;;9.63;100.00;101533.91;4957275;28;20412;-84
2021/09/30 07:53:05;;;;;;;4.00;2.30;;;;;;;9.62;100.00;101535.66;4956681;28;20093;-81
2021/09/30 07:55:32;;;;;;;3.35;2.17;;;;;;;9.68;100.00;101542.69;4990373;28;20046;-85
2021/09/30 07:57:59;;;;;;;7.13;2.30;;;;;;;9.75;100.00;101549.69;4972372;28;20105;-81
2021/09/30 08:00:25;;;;;;;5.78;2.00;;;;;;;9.73;100.00;101539.13;4973449;28;20049;-81
2021/09/30 08:02:52;;;;;;;4.82;2.40;;;;;;;9.82;100.00;101546.16;4956397;28;20458;-86
2021/09/30 08:05:19;;;;;;;2.70;2.00;;;;;;;9.87;100.00;101550.53;5000431;28;20039;-81
2021/09/30 08:07:47;;;;;;;4.75;2.00;;;;;;;9.91;100.00;101551.38;4969747;28;20050;-80
2021/09/30 08:10:14;;;;;;;3.95;2.40;;;;;;;9.97;100.00;101555.78;4989572;28;20500;-80
2021/09/30 08:12:40;;;;;;;5.25;2.97;;;;;;;10.12;100.00;101553.09;4972454;28;20050;-86
2021/09/30 08:15:08;;;;;;;5.00;2.25;;;;;;;10.25;100.00;101551.28;4976454;28;20066;-82
2021/09/30 08:17:35;;;;;;;4.65;2.10;;;;;;;10.29;100.00;101553.91;4954316;28;20047;-81
2021/09/30 08:20:03;;;;;;;3.72;2.30;;;;;;;10.32;100.00;101555.66;4973363;28;20484;-81
2021/09/30 08:22:29;;;;;;;2.83;2.20;;;;;;;10.40;100.00;101564.41;4959040;28;20411;-82
2021/09/30 08:24:56;;;;;;;3.75;2.30;;;;;;;10.38;100.00;101568.84;4978375;28;20038;-84
2021/09/30 08:27:23;;;;;;;5.55;2.00;;;;;;;10.40;100.00;101570.56;4968756;28;20043;-83
2021/09/30 08:29:50;;;;;;;6.63;2.33;;;;;;;10.50;100.00;101576.69;4958504;28;20574;-85
2021/09/30 08:32:16;;;;;;;2.47;2.00;;;;;;;10.57;100.00;101570.47;4960525;28;20053;-84
2021/09/30 08:34:43;;;;;;;4.60;2.20;;;;;;;10.63;100.00;101574.88;4961967;28;20065;-83
2021/09/30 08:37:10;;;;;;;5.53;2.38;;;;;;;10.72;100.00;101574.81;4991935;28;20053;-85
2021/09/30 08:39:36;;;;;;;3.20;2.10;;;;;;;10.86;100.00;101586.19;4964930;28;20054;-86
2021/09/30 08:42:04;;;;;;;3.72;1.88;;;;;;;11.09;100.00;101587.75;4977782;28;20927;-83
2021/09/30 08:44:33;;;;;;;2.80;1.98;;;;;;;11.28;100.00;101582.31;4987694;28;20057;-84
2021/09/30 08:47:02;;;;;;;4.68;2.10;;;;;;;11.26;99.19;101591.13;4977855;28;20089;-85
2021/09/30 08:49:29;;;;;;;3.30;2.35;;;;;;;11.34;97.64;101585.78;4977820;28;20511;-83
2021/09/30 08:51:55;;;;;;;3.97;1.90;;;;;;;11.40;95.01;101593.69;4961526;28;20034;-83
2021/09/30 08:54:23;;;;;;;3.85;2.33;;;;;;;11.41;94.68;101588.34;4962584;28;20064;-85
2021/09/30 08:56:51;;;;;;;5.30;2.47;;;;;;;11.42;94.83;101586.59;4956404;28;20042;-84
2021/09/30 08:59:28;;;;;;;2.85;1.67;;;;;;;11.40;93.61;101589.25;4960258;28;20220;-84
2021/09/30 09:02:13;;;;;;;3.85;1.88;;;;;;;11.43;92.36;101588.34;4976809;28;20046;-82
2021/09/30 09:04:59;;;;;;;6.07;4.68;;;;;;;11.34;94.35;101605.19;4980885;28;20117;-82
2021/09/30 09:07:28;;;;;;;4.65;2.40;;;;;;;11.26;92.94;101602.59;4971374;28;20042;-83
2021/09/30 09:09:57;;;;;;;4.63;3.60;;;;;;;11.21;94.25;101603.53;4941943;28;20051;-83
2021/09/30 09:12:26;;;;;;;14.10;8.32;;;;;;;11.25;92.74;101606.13;4960740;28;20038;-82
2021/09/30 09:14:53;;;;;;;3.90;2.13;;;;;;;11.27;94.21;101604.38;4981226;28;20049;-83
2021/09/30 09:17:20;;;;;;;5.28;1.80;;;;;;;11.24;90.73;101599.09;4972562;28;20058;-84
2021/09/30 09:19:52;;;;;;;5.55;2.30;;;;;;;11.34;93.16;101605.19;4944191;28;20377;-83
2021/09/30 09:22:33;;;;;;;5.80;2.20;;;;;;;11.39;90.84;101603.38;4968636;28;20051;-82
2021/09/30 09:25:11;;;;;;;3.85;2.50;;;;;;;11.67;91.74;101601.34;4957156;28;20125;-83
2021/09/30 09:27:53;;;;;;;12.05;10.35;;;;;;;12.01;86.55;101598.38;4983616;28;20050;-82
2021/09/30 09:30:24;;;;;;;5.13;2.00;;;;;;;12.29;85.80;101609.53;4961035;28;20121;-84
2021/09/30 09:33:11;;;;;;;3.78;1.90;;;;;;;12.56;85.33;101614.47;5002570;28;21361;-83
2021/09/30 09:35:53;;;;;;;3.95;2.63;;;;;;;12.91;83.76;101611.31;4957869;28;20489;-83
2021/09/30 09:38:21;;;;;;;5.60;2.47;;;;;;;13.02;79.51;101624.41;4990946;28;20042;-84
2021/09/30 09:40:53;;;;;;;5.97;2.03;;;;;;;13.24;78.42;101625.00;4976412;28;20046;-84
2021/09/30 09:43:39;;;;;;;5.82;2.75;;;;;;;13.47;79.24;101622.84;4970821;28;20454;-82
2021/09/30 09:46:08;;;;;;;4.35;2.20;;;;;;;13.62;81.65;101616.41;4974099;28;20558;-81
2021/09/30 09:48:36;;;;;;;5.40;2.17;;;;;;;13.59;78.19;101627.06;4969307;28;20125;-81
2021/09/30 09:51:11;;;;;;;4.95;2.20;;;;;;;13.52;76.28;101628.94;4957882;28;20121;-82
2021/09/30 09:53:38;;;;;;;4.03;1.92;;;;;;;13.49;78.15;101625.47;4978211;28;20042;-83
2021/09/30 09:56:13;;;;;;;3.78;2.13;;;;;;;13.47;78.63;101633.47;4959232;28;20141;-85
2021/09/30 09:58:44;;;;;;;4.20;2.25;;;;;;;13.45;80.92;101637.03;4975737;28;20495;-82
2021/09/30 10:01:10;;;;;;;5.97;1.90;;;;;;;13.33;77.10;101638.13;4961113;28;20034;-78
2021/09/30 10:03:38;;;;;;;3.30;1.88;;;;;;;13.26;78.44;101641.75;4987194;28;20122;-84
2021/09/30 10:06:06;;;;;;;7.53;2.05;;;;;;;13.10;76.92;101640.22;4974721;28;20046;-81
2021/09/30 10:08:33;;;;;;;4.18;2.45;;;;;;;12.98;77.36;101633.31;4954356;28;20034;-82
2021/09/30 10:11:00;;;;;;;4.18;3.17;;;;;;;13.01;78.90;101640.34;4959052;28;20050;-82
2021/09/30 10:13:31;;;;;;;3.05;2.15;;;;;;;12.99;79.46;101643.03;4973574;28;20042;-81
2021/09/30 10:15:57;;;;;;;2.88;2.05;;;;;;;12.82;79.12;101648.59;4974745;28;20050;-83
2021/09/30 10:18:26;;;;;;;2.60;1.50;;;;;;;12.79;79.82;101648.63;4959566;28;20051;-86
2021/09/30 10:20:55;;;;;;;3.60;2.00;;;;;;;12.89;80.01;101650.25;4958999;28;20097;-81
2021/09/30 10:23:24;;;;;;;3.05;1.80;;;;;;;12.82;79.80;101653.88;4976409;28;20044;-82
2021/09/30 10:25:52;;;;;;;2.20;1.60;;;;;;;12.81;82.18;101654.78;4965463;28;20058;-84
2021/09/30 10:28:19;;;;;;;5.93;1.75;;;;;;;12.86;82.17;101660.91;4956389;28;20053;-83
2021/09/30 10:30:50;;;;;;;3.72;1.77;;;;;;;12.79;78.42;101656.59;4952933;28;20050;-83
2021/09/30 10:33:20;;;;;;;3.03;1.70;;;;;;;12.85;79.96;101664.44;4962971;28;20542;-81
2021/09/30 10:35:52;;;;;;;5.80;2.13;;;;;;;12.79;78.08;101664.53;4988478;28;20615;-86
2021/09/30 10:38:28;;;;;;;4.55;2.22;;;;;;;12.85;79.64;101669.75;4947000;28;20042;-82
2021/09/30 10:41:01;;;;;;;3.53;1.80;;;;;;;12.83;80.08;101671.53;4953450;28;20549;-83
2021/09/30 10:43:50;;;;;;;3.53;1.65;;;;;;;12.88;78.65;101676.81;4979858;28;20042;-84
2021/09/30 10:46:24;;;;;;;3.92;2.15;;;;;;;12.95;83.43;101674.03;4974647;28;20101;-86
2021/09/30 10:48:54;;;;;;;3.38;1.90;;;;;;;13.02;79.78;101669.50;4984075;28;20043;-84
2021/09/30 10:51:22;;;;;;;6.95;2.33;;;;;;;13.18;79.70;101672.81;4955867;28;20503;-83
2021/09/30 10:53:49;;;;;;;3.90;2.05;;;;;;;13.22;79.89;101677.22;4986609;28;20042;-84
2021/09/30 10:56:41;;;;;;;3.92;2.38;;;;;;;13.22;77.78;101670.13;5002083;28;20054;-83
2021/09/30 10:59:07;;;;;;;3.13;1.85;;;;;;;13.25;77.46;101674.50;4983782;28;20046;-84
2021/09/30 11:01:54;;;;;;;4.18;2.17;;;;;;;13.23;79.09;101671.00;4967683;28;20046;-84
2021/09/30 11:04:25;;;;;;;4.78;2.03;;;;;;;13.28;78.63;101666.50;4988549;28;20423;-84
2021/09/30 11:07:15;;;;;;;2.65;1.90;;;;;;;13.38;79.28;101668.13;4973523;28;20097;-86
2021/09/30 11:10:22;;;;;;;3.25;1.77;;;;;;;13.33;74.47;101661.13;4990030;28;20038;-83
2021/09/30 11:13:17;;;;;;;3.28;1.80;;;;;;;13.39;74.79;101658.38;4957014;28;20042;-85
2021/09/30 11:16:02;;;;;;;3.28;1.75;;;;;;;13.40;76.64;101662.78;4950812;28;20047;-88
2021/09/30 11:18:41;;;;;;;4.15;2.00;;;;;;;13.48;77.27;101660.88;4981290;28;20399;-86
2021/09/30 11:21:34;;;;;;;5.38;1.58;;;;;;;13.48;75.96;101661.75;4985112;28;20121;-84
2021/09/30 11:24:06;;;;;;;3.72;1.77;;;;;;;13.60;76.63;101665.97;4964052;28;20570;-86
2021/09/30 11:26:35;;;;;;;2.60;1.90;;;;;;;13.73;75.54;101674.63;4987128;28;20042;-84
2021/09/30 11:29:20;;;;;;;2.38;1.60;;;;;;;13.75;74.95;101667.50;4949207;28;20046;-89
2021/09/30 11:31:49;;;;;;;4.03;1.88;;;;;;;13.79;73.01;101664.78;4984547;28;20034;-85
2021/09/30 11:34:23;;;;;;;2.97;1.60;;;;;;;13.90;73.58;101669.00;4971336;28;20054;-83
2021/09/30 11:36:51;;;;;;;2.83;1.92;;;;;;;13.83;73.82;101662.06;4984066;28;20043;-84
2021/09/30 11:39:18;;;;;;;3.72;1.80;;;;;;;13.86;73.49;101654.03;4971267;28;20057;-85
2021/09/30 11:41:47;;;;;;;3.70;1.70;;;;;;;13.89;72.84;101660.16;4968518;28;20049;-86
2021/09/30 11:44:15;;;;;;;4.30;1.35;;;;;;;13.87;72.46;101651.31;4949387;28;20054;-84
2021/09/30 11:46:42;;;;;;;4.65;1.60;;;;;;;13.94;75.33;101657.41;4967327;28;20041;-82
2021/09/30 11:49:12;;;;;;;4.40;1.70;;;;;;;13.92;73.24;101659.22;4948804;28;20061;-83
2021/09/30 11:51:40;;;;;;;3.65;1.70;;;;;;;14.03;72.17;101657.25;4980808;28;20042;-84
2021/09/30 11:54:09;;;;;;;5.13;2.80;;;;;;;13.99;71.07;101659.09;4972004;28;20038;-83
2021/09/30 11:56:46;;;;;;;3.65;2.13;;;;;;;14.16;70.47;101666.75;4965373;28;20061;-84
2021/09/30 11:59:13;;;;;;;4.68;1.60;;;;;;;14.26;72.43;101654.16;4973816;28;20112;-83
2021/09/30 12:01:42;;;;;;;4.45;1.63;;;;;;;14.22;71.60;101641.84;4945620;28;20070;-82
2021/09/30 12:04:10;;;;;;;1.58;1.45;;;;;;;14.22;70.18;101649.81;4973444;28;20105;-82
2021/09/30 12:06:40;;;;;;;2.45;1.38;;;;;;;14.17;70.18;101652.53;4973803;28;20050;-81
2021/09/30 12:09:11;;;;;;;7.43;2.45;;;;;;;14.22;68.86;101661.31;4956359;28;20042;-86
2021/09/30 12:11:52;;;;;;;5.68;1.95;;;;;;;14.27;68.71;101669.19;4974671;28;20050;-86
2021/09/30 12:14:19;;;;;;;2.40;1.50;;;;;;;14.16;68.01;101671.19;4989474;28;20100;-83
2021/09/30 12:16:57;;;;;;;2.95;1.70;;;;;;;14.15;69.46;101666.78;4985898;28;20039;-83
2021/09/30 12:19:32;;;;;;;2.05;1.20;;;;;;;14.16;67.50;101666.75;4988232;28;20471;-83
2021/09/30 12:21:59;;;;;;;2.97;1.42;;;;;;;14.17;67.05;101660.50;4956558;28;20099;-82
2021/09/30 12:24:27;;;;;;;2.25;1.38;;;;;;;14.21;70.03;101658.66;5093724;23;20060;-81
2021/09/30 12:26:54;;;;;;;4.20;1.42;;;;;;;14.23;69.27;101672.81;5066080;28;20407;-80
2021/09/30 12:29:21;;;;;;;14.00;2.03;;;;;;;14.30;70.60;101661.16;5048012;28;20046;-81
2021/09/30 12:32:06;;;;;;;3.70;1.40;;;;;;;14.31;69.41;101663.78;5046179;28;20036;-80
2021/09/30 12:34:33;;;;;;;5.15;2.30;;;;;;;14.50;67.15;101674.09;5077445;28;20051;-80
2021/09/30 12:37:00;;;;;;;4.97;1.88;;;;;;;14.59;66.98;101664.13;5048135;28;20053;-81
2021/09/30 12:39:29;;;;;;;4.85;1.58;;;;;;;14.79;65.69;101662.81;5058341;28;20048;-81
2021/09/30 12:42:15;;;;;;;3.33;1.30;;;;;;;14.93;63.82;101672.25;5040997;28;20037;-81
2021/09/30 12:44:49;;;;;;;15.18;1.73;;;;;;;15.03;64.54;101672.91;5059390;28;20045;-81
2021/09/30 12:47:39;;;;;;;2.42;1.33;;;;;;;14.97;63.69;101667.75;5047023;28;20045;-81
2021/09/30 12:50:09;;;;;;;4.72;2.03;;;;;;;14.86;66.10;101672.41;5028113;28;20052;-81
2021/09/30 12:52:37;;;;;;;6.28;1.95;;;;;;;14.75;65.15;101667.34;5024668;28;20446;-80
2021/09/30 12:55:27;;;;;;;1.65;1.42;;;;;;;14.69;65.36;101672.78;5034086;28;20040;-81
2021/09/30 12:57:54;;;;;;;5.60;1.70;;;;;;;14.58;65.60;101661.50;5058898;28;20482;-81
2021/09/30 13:00:22;;;;;;;4.05;1.45;;;;;;;14.49;62.98;101654.59;5026582;28;20041;-80
2021/09/30 13:02:49;;;;;;;2.28;1.50;;;;;;;14.48;66.06;101654.63;5040753;28;20041;-81
2021/09/30 13:05:16;;;;;;;3.03;1.40;;;;;;;14.53;66.31;101658.94;5025795;28;20135;-82
2021/09/30 13:07:57;;;;;;;2.30;1.58;;;;;;;14.84;67.63;101659.16;5022500;28;20059;-81
2021/09/30 13:10:34;;;;;;;3.95;1.30;;;;;;;14.95;61.65;101652.72;5021614;28;20064;-81
2021/09/30 13:13:14;;;;;;;3.28;1.73;;;;;;;15.07;64.85;101652.44;5024062;28;20079;-81
2021/09/30 13:15:46;;;;;;;3.80;1.75;;;;;;;15.08;60.13;101649.75;5031968;28;20105;-81
2021/09/30 13:18:15;;;;;;;3.38;1.38;;;;;;;15.21;62.19;101645.84;5050840;28;20045;-81
2021/09/30 13:21:04;;;;;;;3.72;1.80;;;;;;;15.50;61.23;101638.97;5051281;28;20036;-81
2021/09/30 13:23:39;;;;;;;3.70;1.60;;;;;;;15.75;62.36;101648.09;5024316;28;20040;-80
2021/09/30 13:26:06;;;;;;;4.50;1.50;;;;;;;15.86;60.05;101647.81;5050937;28;20051;-81
2021/09/30 13:28:32;;;;;;;2.25;1.35;;;;;;;15.90;59.57;101638.84;5052091;28;20048;-81
2021/09/30 13:31:00;;;;;;;4.07;1.50;;;;;;;15.93;60.11;101648.53;5070658;28;20078;-80
2021/09/30 13:33:27;;;;;;;5.18;2.08;;;;;;;15.92;59.36;101646.78;5075605;28;20489;-81
2021/09/30 13:35:54;;;;;;;2.90;1.27;;;;;;;15.92;60.65;101644.13;5032158;28;20037;-80
2021/09/30 13:38:21;;;;;;;5.30;1.92;;;;;;;15.68;59.86;101643.84;5032033;28;20040;-81
2021/09/30 13:40:48;;;;;;;4.72;1.63;;;;;;;15.55;58.26;101655.69;5052638;28;20049;-81
2021/09/30 13:43:16;;;;;;;4.20;1.80;;;;;;;15.43;59.29;101651.56;5027218;28;20053;-81
2021/09/30 13:45:43;;;;;;;3.38;1.77;;;;;;;15.46;58.93;101651.47;5037950;28;20040;-80
2021/09/30 13:48:10;;;;;;;6.40;2.70;;;;;;;15.59;61.00;101657.38;5038101;28;20044;-79
2021/09/30 13:50:36;;;;;;;4.32;1.48;;;;;;;15.70;59.60;101651.78;5064768;28;20044;-80
2021/09/30 13:53:03;;;;;;;4.85;1.45;;;;;;;15.79;59.17;101648.88;5069206;28;20054;-80
2021/09/30 13:55:32;;;;;;;2.95;1.90;;;;;;;15.79;57.91;101656.88;5065868;28;20066;-81
2021/09/30 13:57:59;;;;;;;3.25;2.03;;;;;;;15.81;60.21;101647.09;5065423;28;20098;-80
2021/09/30 14:00:25;;;;;;;2.35;1.70;;;;;;;15.85;60.57;101654.06;5048971;28;20049;-80
2021/09/30 14:02:54;;;;;;;3.90;2.10;;;;;;;15.73;58.36;101649.06;5036881;28;20094;-80
2021/09/30 14:05:20;;;;;;;3.08;1.65;;;;;;;15.67;57.72;101654.56;5069177;28;20056;-82
2021/09/30 14:07:47;;;;;;;4.07;1.60;;;;;;;15.67;58.26;101649.22;5032239;28;20033;-82
2021/09/30 14:10:17;;;;;;;3.65;1.60;;;;;;;15.65;58.00;101649.25;5058416;28;20052;-81
2021/09/30 14:12:44;;;;;;;3.20;1.52;;;;;;;15.38;57.58;101655.22;5038081;28;20187;-82
2021/09/30 14:15:11;;;;;;;3.20;1.48;;;;;;;15.32;60.70;101650.06;5072770;28;20033;-80
2021/09/30 14:17:39;;;;;;;4.57;1.70;;;;;;;15.27;60.65;101643.97;5038311;28;20040;-82
2021/09/30 14:20:08;;;;;;;3.47;1.42;;;;;;;15.33;59.79;101655.34;5057883;28;20045;-81
2021/09/30 14:22:35;;;;;;;3.38;1.88;;;;;;;15.37;59.64;101653.47;5054348;28;20086;-82